createdAt,value
2022-08-31T00:01:12.241Z,15.20
2022-08-31T00:03:40.260Z,15.10
2022-08-31T00:06:08.048Z,15.10
2022-08-31T00:08:35.986Z,15.00
2022-08-31T00:11:02.705Z,15.00
2022-08-31T00:13:30.451Z,15.10
2022-08-31T00:15:58.499Z,15.10
2022-08-31T00:18:26.668Z,15.10
2022-08-31T00:20:54.906Z,15.10
2022-08-31T00:23:22.950Z,15.00
2022-08-31T00:25:51.139Z,15.00
2022-08-31T00:28:19.747Z,15.00
2022-08-31T00:30:48.338Z,14.90
2022-08-31T00:33:17.671Z,15.00
2022-08-31T00:35:55.021Z,14.90
2022-08-31T00:38:24.098Z,14.90
2022-08-31T00:40:53.955Z,14.90
2022-08-31T00:43:53.520Z,14.80
2022-08-31T00:46:29.949Z,14.80
2022-08-31T00:49:08.512Z,14.80
2022-08-31T00:51:43.926Z,14.80
2022-08-31T00:54:12.676Z,14.80
2022-08-31T00:56:41.633Z,14.80
2022-08-31T00:59:09.549Z,14.80
2022-08-31T01:01:38.030Z,14.70
2022-08-31T01:04:06.089Z,14.70
2022-08-31T01:06:32.952Z,14.70
2022-08-31T01:09:03.456Z,14.70
2022-08-31T01:11:32.369Z,14.60
2022-08-31T01:14:00.578Z,14.50
2022-08-31T01:16:49.499Z,14.50
2022-08-31T01:19:29.946Z,14.50
2022-08-31T01:22:08.812Z,14.40
2022-08-31T01:24:39.474Z,14.40
2022-08-31T01:27:08.539Z,14.30
2022-08-31T01:29:36.694Z,14.30
2022-08-31T01:32:06.006Z,14.30
2022-08-31T01:34:33.503Z,14.30
2022-08-31T01:37:00.549Z,14.30
2022-08-31T01:39:28.677Z,14.30
2022-08-31T01:41:56.769Z,14.30
2022-08-31T01:44:26.540Z,14.30
2022-08-31T01:46:55.960Z,14.40
2022-08-31T01:49:24.181Z,14.40
2022-08-31T01:51:53.769Z,14.40
2022-08-31T01:54:22.312Z,14.40
2022-08-31T01:56:50.871Z,14.40
2022-08-31T01:59:21.154Z,14.50
2022-08-31T02:01:52.358Z,14.60
2022-08-31T02:04:21.998Z,14.60
2022-08-31T02:06:53.490Z,14.70
2022-08-31T02:09:22.383Z,14.70
2022-08-31T02:11:56.117Z,14.70
2022-08-31T02:14:25.264Z,14.70
2022-08-31T02:16:56.003Z,14.70
2022-08-31T02:19:22.771Z,14.70
2022-08-31T02:21:49.555Z,14.70
2022-08-31T02:24:17.482Z,14.80
2022-08-31T02:26:45.379Z,14.80
2022-08-31T02:29:13.207Z,14.80
2022-08-31T02:31:41.149Z,14.80
2022-08-31T02:34:07.900Z,14.90
2022-08-31T02:36:35.987Z,14.80
2022-08-31T02:39:04.361Z,14.80
2022-08-31T02:41:33.777Z,14.90
2022-08-31T02:44:01.927Z,14.80
2022-08-31T02:46:29.748Z,14.80
2022-08-31T02:48:56.447Z,14.80
2022-08-31T02:51:24.612Z,14.80
2022-08-31T02:53:52.455Z,14.80
2022-08-31T02:56:20.245Z,14.70
2022-08-31T02:58:48.301Z,14.80
2022-08-31T03:01:18.552Z,14.80
2022-08-31T03:03:47.136Z,14.80
2022-08-31T03:06:16.388Z,14.70
2022-08-31T03:08:43.134Z,14.70
2022-08-31T03:11:10.057Z,14.70
2022-08-31T03:13:39.085Z,14.70
2022-08-31T03:16:06.978Z,14.70
2022-08-31T03:18:35.469Z,14.70
2022-08-31T03:21:02.197Z,14.70
2022-08-31T03:23:28.971Z,14.70
2022-08-31T03:25:55.743Z,14.70
2022-08-31T03:28:23.927Z,14.60
2022-08-31T03:30:52.177Z,14.60
2022-08-31T03:33:20.399Z,14.60
2022-08-31T03:35:48.530Z,14.60
2022-08-31T03:38:16.608Z,14.60
2022-08-31T03:40:44.645Z,14.60
2022-08-31T03:43:13.549Z,14.50
2022-08-31T03:45:42.281Z,14.50
2022-08-31T03:48:12.729Z,14.40
2022-08-31T03:50:44.508Z,14.40
2022-08-31T03:53:12.660Z,14.40
2022-08-31T03:55:42.994Z,14.40
2022-08-31T03:58:12.564Z,14.40
2022-08-31T04:00:45.747Z,14.40
2022-08-31T04:03:15.552Z,14.30
2022-08-31T04:05:46.457Z,14.30
2022-08-31T04:08:16.383Z,14.30
2022-08-31T04:10:49.378Z,14.20
2022-08-31T04:13:17.683Z,14.20
2022-08-31T04:15:47.100Z,14.20
2022-08-31T04:18:13.851Z,14.20
2022-08-31T04:20:41.742Z,14.20
2022-08-31T04:23:09.022Z,14.20
2022-08-31T04:25:40.853Z,14.30
2022-08-31T04:28:10.861Z,14.30
2022-08-31T04:30:43.312Z,14.20
2022-08-31T04:33:11.465Z,14.20
2022-08-31T04:35:41.246Z,14.20
2022-08-31T04:38:08.540Z,14.20
2022-08-31T04:40:40.002Z,14.20
2022-08-31T04:43:08.576Z,14.20
2022-08-31T04:45:40.125Z,14.20
2022-08-31T04:48:10.173Z,14.20
2022-08-31T04:50:41.846Z,14.20
2022-08-31T04:53:09.478Z,14.20
2022-08-31T04:55:41.736Z,14.10
2022-08-31T04:58:09.894Z,14.10
2022-08-31T05:00:37.659Z,14.10
2022-08-31T05:03:05.443Z,14.10
2022-08-31T05:05:32.118Z,14.10
2022-08-31T05:07:58.840Z,14.10
2022-08-31T05:10:26.850Z,14.10
2022-08-31T05:12:54.538Z,14.10
2022-08-31T05:15:21.309Z,14.10
2022-08-31T05:17:49.218Z,14.10
2022-08-31T05:20:15.998Z,14.10
2022-08-31T05:22:42.764Z,14.10
2022-08-31T05:25:10.650Z,14.10
2022-08-31T05:27:38.856Z,14.10
2022-08-31T05:30:07.575Z,14.10
2022-08-31T05:32:35.550Z,14.10
2022-08-31T05:35:07.758Z,14.10
2022-08-31T05:37:34.399Z,14.10
2022-08-31T05:40:02.338Z,14.10
2022-08-31T05:42:30.318Z,14.10
2022-08-31T05:44:58.481Z,14.10
2022-08-31T05:47:29.155Z,14.10
2022-08-31T05:49:58.214Z,14.10
2022-08-31T05:52:27.209Z,14.20
2022-08-31T05:55:04.228Z,14.20
2022-08-31T05:57:32.376Z,14.20
2022-08-31T06:00:03.872Z,14.30
2022-08-31T06:02:32.831Z,14.30
2022-08-31T06:05:02.509Z,14.30
2022-08-31T06:07:31.229Z,14.30
2022-08-31T06:09:58.210Z,14.40
2022-08-31T06:12:24.899Z,14.30
2022-08-31T06:14:53.523Z,14.40
2022-08-31T06:17:21.545Z,14.40
2022-08-31T06:19:49.426Z,14.40
2022-08-31T06:22:16.136Z,14.50
2022-08-31T06:24:42.859Z,14.60
2022-08-31T06:27:11.106Z,14.60
2022-08-31T06:29:39.458Z,14.70
2022-08-31T06:32:07.760Z,14.70
2022-08-31T06:34:45.966Z,14.80
2022-08-31T06:37:19.048Z,14.80
2022-08-31T06:39:47.493Z,14.90
2022-08-31T06:42:17.414Z,14.90
2022-08-31T06:44:45.554Z,15.00
2022-08-31T06:47:13.443Z,15.10
2022-08-31T06:49:43.470Z,15.10
2022-08-31T06:52:14.922Z,15.20
2022-08-31T06:54:44.954Z,15.30
2022-08-31T06:57:17.681Z,15.40
2022-08-31T06:59:54.203Z,15.40
2022-08-31T07:02:23.906Z,15.40
2022-08-31T07:04:51.896Z,15.50
2022-08-31T07:07:19.802Z,15.60
2022-08-31T07:09:47.694Z,15.60
2022-08-31T07:12:15.781Z,15.60
2022-08-31T07:14:43.736Z,15.70
2022-08-31T07:17:21.009Z,15.80
2022-08-31T07:19:47.709Z,15.80
2022-08-31T07:22:15.350Z,15.90
2022-08-31T07:24:42.481Z,15.90
2022-08-31T07:27:12.054Z,16.00
2022-08-31T07:29:40.936Z,16.00
2022-08-31T07:32:14.008Z,16.10
2022-08-31T07:34:42.154Z,16.20
2022-08-31T07:37:08.896Z,16.20
2022-08-31T07:39:37.414Z,16.30
2022-08-31T07:42:06.698Z,16.30
2022-08-31T07:44:34.602Z,16.30
2022-08-31T07:47:03.875Z,16.30
2022-08-31T07:49:31.630Z,16.40
2022-08-31T07:51:59.841Z,16.50
2022-08-31T07:54:28.179Z,16.50
2022-08-31T07:56:57.249Z,16.50
2022-08-31T07:59:26.851Z,16.60
2022-08-31T08:01:54.894Z,16.70
2022-08-31T08:04:23.077Z,16.70
2022-08-31T08:06:49.830Z,16.80
2022-08-31T08:09:24.207Z,16.80
2022-08-31T08:11:56.742Z,16.90
2022-08-31T08:14:31.111Z,17.00
2022-08-31T08:16:57.838Z,17.00
2022-08-31T08:19:24.616Z,17.10
2022-08-31T08:21:51.413Z,17.20
2022-08-31T08:24:20.218Z,17.20
2022-08-31T08:26:54.117Z,17.30
2022-08-31T08:29:22.783Z,17.30
2022-08-31T08:31:51.772Z,17.30
2022-08-31T08:34:19.693Z,17.30
2022-08-31T08:36:47.187Z,17.20
2022-08-31T08:39:16.777Z,17.20
2022-08-31T08:41:47.372Z,17.20
2022-08-31T08:44:18.117Z,17.30
2022-08-31T08:47:11.009Z,17.40
2022-08-31T08:49:39.371Z,17.40
2022-08-31T08:52:17.824Z,17.40
2022-08-31T08:54:47.794Z,17.50
2022-08-31T08:57:27.600Z,17.60
2022-08-31T08:59:57.719Z,17.70
2022-08-31T09:02:53.431Z,17.70
2022-08-31T09:05:52.934Z,17.70
2022-08-31T09:08:34.723Z,17.90
2022-08-31T09:11:04.434Z,18.00
2022-08-31T09:13:55.685Z,18.10
2022-08-31T09:16:37.068Z,18.10
2022-08-31T09:19:13.931Z,18.10
2022-08-31T09:21:54.126Z,18.20
2022-08-31T09:24:29.373Z,18.20
2022-08-31T09:27:08.951Z,18.20
2022-08-31T09:29:41.588Z,18.40
2022-08-31T09:32:13.827Z,18.50
2022-08-31T09:34:42.404Z,18.70
2022-08-31T09:37:27.085Z,18.70
2022-08-31T09:39:55.371Z,18.90
2022-08-31T09:42:34.152Z,19.00
2022-08-31T09:45:08.552Z,19.10
2022-08-31T09:47:50.521Z,19.10
2022-08-31T09:50:35.716Z,19.10
2022-08-31T09:53:28.005Z,19.10
2022-08-31T09:56:15.000Z,19.10
2022-08-31T09:58:54.007Z,19.20
2022-08-31T10:01:39.408Z,19.20
2022-08-31T10:04:22.676Z,19.30
2022-08-31T10:07:15.726Z,19.40
2022-08-31T10:09:57.608Z,19.60
2022-08-31T10:12:39.647Z,19.90
2022-08-31T10:15:20.496Z,19.90
2022-08-31T10:17:58.054Z,20.00
2022-08-31T10:20:36.601Z,20.10
2022-08-31T10:23:36.746Z,20.30
2022-08-31T10:26:22.160Z,20.40
2022-08-31T10:29:01.986Z,20.40
2022-08-31T10:31:37.164Z,20.50
2022-08-31T10:34:16.094Z,20.60
2022-08-31T10:36:45.368Z,20.60
2022-08-31T10:39:37.106Z,20.70
2022-08-31T10:42:11.797Z,20.60
2022-08-31T10:45:22.010Z,20.60
2022-08-31T10:47:54.014Z,20.60
2022-08-31T10:50:44.234Z,20.70
2022-08-31T10:53:45.118Z,20.70
2022-08-31T10:56:42.780Z,20.60
2022-08-31T10:59:50.805Z,20.60
2022-08-31T11:02:42.337Z,20.50
2022-08-31T11:05:41.895Z,20.40
2022-08-31T11:08:39.707Z,20.40
2022-08-31T11:11:17.283Z,20.50
2022-08-31T11:14:41.679Z,20.60
2022-08-31T11:17:29.534Z,20.60
2022-08-31T11:20:34.524Z,20.70
2022-08-31T11:23:49.277Z,20.80
2022-08-31T11:26:44.091Z,20.90
2022-08-31T11:29:47.650Z,21.10
2022-08-31T11:32:28.086Z,21.00
2022-08-31T11:34:59.148Z,21.00
2022-08-31T11:37:47.266Z,20.90
2022-08-31T11:40:35.379Z,20.80
2022-08-31T11:43:04.347Z,20.80
2022-08-31T11:45:32.350Z,20.60
2022-08-31T11:47:59.093Z,20.60
2022-08-31T11:50:45.704Z,20.70
2022-08-31T11:53:37.149Z,20.80
2022-08-31T11:56:05.809Z,21.10
2022-08-31T11:58:38.013Z,21.30
2022-08-31T12:01:19.456Z,21.40
2022-08-31T12:03:55.230Z,21.50
2022-08-31T12:06:27.547Z,21.50
2022-08-31T12:09:08.284Z,21.60
2022-08-31T12:12:23.800Z,21.70
2022-08-31T12:15:19.688Z,21.80
2022-08-31T12:18:24.755Z,22.00
2022-08-31T12:21:19.459Z,22.10
2022-08-31T12:24:18.822Z,22.00
2022-08-31T12:27:16.150Z,22.00
2022-08-31T12:29:43.988Z,22.10
2022-08-31T12:32:35.220Z,22.30
2022-08-31T12:35:13.654Z,22.60
2022-08-31T12:37:40.835Z,22.80
2022-08-31T12:40:19.148Z,23.00
2022-08-31T12:43:03.607Z,23.10
2022-08-31T12:45:55.334Z,23.30
2022-08-31T12:48:27.955Z,23.40
2022-08-31T12:51:13.950Z,23.60
2022-08-31T12:54:02.256Z,23.70
2022-08-31T12:56:34.960Z,23.60
2022-08-31T12:59:22.347Z,23.90
2022-08-31T13:01:51.471Z,24.40
2022-08-31T13:04:21.182Z,24.70
2022-08-31T13:06:48.533Z,25.00
2022-08-31T13:09:36.471Z,24.80
2022-08-31T13:12:06.278Z,24.50
2022-08-31T13:14:43.025Z,24.40
2022-08-31T13:17:19.539Z,24.30
2022-08-31T13:19:53.937Z,24.20
2022-08-31T13:22:39.643Z,24.10
2022-08-31T13:25:28.837Z,24.10
2022-08-31T13:27:55.561Z,23.90
2022-08-31T13:30:22.625Z,23.70
2022-08-31T13:32:53.904Z,23.70
2022-08-31T13:35:25.747Z,23.90
2022-08-31T13:37:58.793Z,24.20
2022-08-31T13:40:28.144Z,24.70
2022-08-31T13:42:57.345Z,25.00
2022-08-31T13:45:35.035Z,25.10
2022-08-31T13:48:14.746Z,25.20
2022-08-31T13:50:52.353Z,25.00
2022-08-31T13:53:38.408Z,24.80
2022-08-31T13:56:35.028Z,24.50
2022-08-31T13:59:23.235Z,24.40
2022-08-31T14:01:56.167Z,24.30
2022-08-31T14:04:36.016Z,24.10
2022-08-31T14:07:04.695Z,24.00
2022-08-31T14:09:33.462Z,23.80
2022-08-31T14:12:01.637Z,23.70
2022-08-31T14:14:30.152Z,23.70
2022-08-31T14:16:59.064Z,23.50
2022-08-31T14:19:37.419Z,23.50
2022-08-31T14:22:32.394Z,23.60
2022-08-31T14:25:00.305Z,23.80
2022-08-31T14:27:28.103Z,24.20
2022-08-31T14:29:56.335Z,24.50
2022-08-31T14:32:24.473Z,24.90
2022-08-31T14:34:52.380Z,25.00
2022-08-31T14:37:20.294Z,24.90
2022-08-31T14:39:53.312Z,24.80
2022-08-31T14:42:35.280Z,24.40
2022-08-31T14:45:07.081Z,24.20
2022-08-31T14:47:40.227Z,23.90
2022-08-31T14:50:09.404Z,24.00
2022-08-31T14:52:49.598Z,24.30
2022-08-31T14:55:16.413Z,24.50
2022-08-31T14:57:55.318Z,24.70
2022-08-31T15:00:25.129Z,25.10
2022-08-31T15:02:56.430Z,25.20
2022-08-31T15:05:29.316Z,25.30
2022-08-31T15:07:56.319Z,25.30
2022-08-31T15:10:25.575Z,25.50
2022-08-31T15:12:52.660Z,25.60
2022-08-31T15:15:19.530Z,25.60
2022-08-31T15:17:50.066Z,25.70
2022-08-31T15:20:18.843Z,25.80
2022-08-31T15:22:45.534Z,26.00
2022-08-31T15:25:12.425Z,25.90
2022-08-31T15:27:41.410Z,25.70
2022-08-31T15:30:10.686Z,25.50
2022-08-31T15:32:38.938Z,25.30
2022-08-31T15:35:07.627Z,25.00
2022-08-31T15:37:34.511Z,25.00
2022-08-31T15:40:04.429Z,25.00
2022-08-31T15:42:32.729Z,25.00
2022-08-31T15:45:00.866Z,24.90
2022-08-31T15:47:33.609Z,24.70
2022-08-31T15:50:01.683Z,24.50
2022-08-31T15:52:28.493Z,24.30
2022-08-31T15:54:56.724Z,24.10
2022-08-31T15:57:23.408Z,24.00
2022-08-31T15:59:53.714Z,24.00
2022-08-31T16:02:22.116Z,24.00
2022-08-31T16:04:50.227Z,24.00
2022-08-31T16:07:19.697Z,23.90
2022-08-31T16:09:46.502Z,23.80
2022-08-31T16:12:16.270Z,23.70
2022-08-31T16:14:44.562Z,23.70
2022-08-31T16:17:14.781Z,23.70
2022-08-31T16:19:42.649Z,23.60
2022-08-31T16:22:10.828Z,23.50
2022-08-31T16:24:38.128Z,23.60
2022-08-31T16:27:08.768Z,23.60
2022-08-31T16:29:37.527Z,23.70
2022-08-31T16:32:08.611Z,23.80
2022-08-31T16:34:37.768Z,23.90
2022-08-31T16:37:07.749Z,24.10
2022-08-31T16:39:44.829Z,24.10
2022-08-31T16:42:12.487Z,24.10
2022-08-31T16:44:42.384Z,23.70
2022-08-31T16:47:10.637Z,23.20
2022-08-31T16:49:38.501Z,23.00
2022-08-31T16:52:12.721Z,22.70
2022-08-31T16:54:42.087Z,22.40
2022-08-31T16:57:13.590Z,22.20
2022-08-31T16:59:44.204Z,22.30
2022-08-31T17:02:14.301Z,22.20
2022-08-31T17:04:53.114Z,22.20
2022-08-31T17:07:22.668Z,22.20
2022-08-31T17:09:49.344Z,22.10
2022-08-31T17:12:18.114Z,22.00
2022-08-31T17:14:48.495Z,22.00
2022-08-31T17:17:18.563Z,21.90
2022-08-31T17:19:47.665Z,21.80
2022-08-31T17:22:23.323Z,21.60
2022-08-31T17:25:07.199Z,21.50
2022-08-31T17:27:35.421Z,21.30
2022-08-31T17:30:05.908Z,21.10
2022-08-31T17:32:34.873Z,21.00
2022-08-31T17:35:01.525Z,20.90
2022-08-31T17:37:31.961Z,20.80
2022-08-31T17:40:00.022Z,20.80
2022-08-31T17:42:29.498Z,20.70
2022-08-31T17:44:57.668Z,20.60
2022-08-31T17:47:25.911Z,20.50
2022-08-31T17:49:53.971Z,20.30
2022-08-31T17:52:22.081Z,20.20
2022-08-31T17:54:50.115Z,20.00
2022-08-31T17:57:18.980Z,19.90
2022-08-31T17:59:50.377Z,19.80
2022-08-31T18:02:24.839Z,19.60
2022-08-31T18:04:56.006Z,19.50
2022-08-31T18:07:22.823Z,19.40
2022-08-31T18:09:50.346Z,19.40
2022-08-31T18:12:19.234Z,19.30
2022-08-31T18:14:47.584Z,19.20
2022-08-31T18:17:15.639Z,19.20
2022-08-31T18:19:43.046Z,19.10
2022-08-31T18:22:11.485Z,19.00
2022-08-31T18:24:39.782Z,18.90
2022-08-31T18:27:10.250Z,18.80
2022-08-31T18:29:38.880Z,18.80
2022-08-31T18:32:08.686Z,18.80
2022-08-31T18:34:38.909Z,18.70
2022-08-31T18:37:07.613Z,18.70
2022-08-31T18:39:51.079Z,18.60
2022-08-31T18:42:21.042Z,18.50
2022-08-31T18:44:48.987Z,18.50
2022-08-31T18:47:15.669Z,18.40
2022-08-31T18:49:43.495Z,18.30
2022-08-31T18:52:19.135Z,18.30
2022-08-31T18:54:47.993Z,18.30
2022-08-31T18:57:18.306Z,18.20
2022-08-31T18:59:45.522Z,18.20
2022-08-31T19:02:14.808Z,18.20
2022-08-31T19:04:42.916Z,18.20
2022-08-31T19:07:11.323Z,18.20
2022-08-31T19:09:39.523Z,18.10
2022-08-31T19:12:08.169Z,18.10
2022-08-31T19:14:37.730Z,18.10
2022-08-31T19:17:06.222Z,18.10
2022-08-31T19:19:34.472Z,18.00
2022-08-31T19:22:03.835Z,18.00
2022-08-31T19:24:32.963Z,18.00
2022-08-31T19:27:01.292Z,18.00
2022-08-31T19:29:38.019Z,18.00
2022-08-31T19:32:06.583Z,17.90
2022-08-31T19:34:36.954Z,17.90
2022-08-31T19:37:07.216Z,17.80
2022-08-31T19:39:37.019Z,17.80
2022-08-31T19:42:07.764Z,17.70
2022-08-31T19:47:28.864Z,17.70
2022-08-31T19:49:58.526Z,17.60
2022-08-31T19:52:27.698Z,17.60
2022-08-31T19:54:56.529Z,17.60
2022-08-31T19:57:24.503Z,17.60
2022-08-31T19:59:51.202Z,17.60
2022-08-31T20:02:18.127Z,17.50
2022-08-31T20:04:46.327Z,17.50
2022-08-31T20:07:14.412Z,17.50
2022-08-31T20:09:42.631Z,17.50
2022-08-31T20:12:10.825Z,17.50
2022-08-31T20:14:37.536Z,17.40
2022-08-31T20:17:05.584Z,17.30
2022-08-31T20:19:36.287Z,17.30
2022-08-31T20:22:04.277Z,17.20
2022-08-31T20:24:33.234Z,17.20
2022-08-31T20:27:09.487Z,17.20
2022-08-31T20:29:37.823Z,17.10
2022-08-31T20:32:05.004Z,17.10
2022-08-31T20:34:31.768Z,17.10
2022-08-31T20:37:01.720Z,17.10
2022-08-31T20:39:31.633Z,17.10
2022-08-31T20:42:00.104Z,17.10
2022-08-31T20:44:32.786Z,17.00
2022-08-31T20:47:02.480Z,17.00
2022-08-31T20:49:34.530Z,17.00
2022-08-31T20:52:02.591Z,17.00
2022-08-31T20:54:31.583Z,17.00
2022-08-31T20:57:02.332Z,16.90
2022-08-31T20:59:29.616Z,16.80
2022-08-31T21:01:59.950Z,16.80
2022-08-31T21:04:28.531Z,16.80
2022-08-31T21:07:00.999Z,16.80
2022-08-31T21:09:36.754Z,16.80
2022-08-31T21:12:05.089Z,16.80
2022-08-31T21:14:35.035Z,16.70
2022-08-31T21:17:04.733Z,16.60
2022-08-31T21:19:35.096Z,16.60
2022-08-31T21:22:04.538Z,16.60
2022-08-31T21:24:33.968Z,16.50
2022-08-31T21:27:04.367Z,16.50
2022-08-31T21:29:32.877Z,16.60
2022-08-31T21:32:04.089Z,16.50
2022-08-31T21:34:32.312Z,16.50
2022-08-31T21:37:00.472Z,16.50
2022-08-31T21:39:29.058Z,16.50
2022-08-31T21:41:55.740Z,16.50
2022-08-31T21:44:22.643Z,16.50
2022-08-31T21:46:51.082Z,16.50
2022-08-31T21:49:20.273Z,16.50
2022-08-31T21:51:51.889Z,16.40
2022-08-31T21:54:23.048Z,16.50
2022-08-31T21:56:55.052Z,16.50
2022-08-31T21:59:25.627Z,16.50
2022-08-31T22:01:54.809Z,16.50
2022-08-31T22:04:23.023Z,16.50
2022-08-31T22:06:51.368Z,16.50
2022-08-31T22:09:21.136Z,16.60
2022-08-31T22:11:50.529Z,16.60
2022-08-31T22:14:19.258Z,16.60
2022-08-31T22:16:50.625Z,16.60
2022-08-31T22:19:20.320Z,16.50
2022-08-31T22:21:51.293Z,16.60
2022-08-31T22:24:28.458Z,16.60
2022-08-31T22:26:59.875Z,16.60
2022-08-31T22:29:36.669Z,16.60
2022-08-31T22:32:09.828Z,16.60
2022-08-31T22:34:39.912Z,16.60
2022-08-31T22:37:07.973Z,16.60
2022-08-31T22:39:35.092Z,16.60
2022-08-31T22:42:01.990Z,16.70
2022-08-31T22:44:31.258Z,16.60
2022-08-31T22:46:59.786Z,16.60
2022-08-31T22:49:27.765Z,16.60
2022-08-31T22:51:55.823Z,16.60
2022-08-31T22:54:23.363Z,16.60
2022-08-31T22:56:50.657Z,16.60
2022-08-31T22:59:22.310Z,16.60
2022-08-31T23:01:52.358Z,16.60
2022-08-31T23:04:23.302Z,16.60
2022-08-31T23:06:51.970Z,16.50
2022-08-31T23:09:20.728Z,16.50
2022-08-31T23:11:48.414Z,16.50
2022-08-31T23:14:16.448Z,16.50
2022-08-31T23:16:47.276Z,16.40
2022-08-31T23:19:20.483Z,16.50
2022-08-31T23:21:52.909Z,16.40
2022-08-31T23:24:27.070Z,16.40
2022-08-31T23:26:59.312Z,16.40
2022-08-31T23:29:29.238Z,16.50
2022-08-31T23:31:57.266Z,16.40
2022-08-31T23:34:25.462Z,16.30
2022-08-31T23:36:53.264Z,16.30
2022-08-31T23:39:22.631Z,16.30
2022-08-31T23:41:53.124Z,16.30
2022-08-31T23:44:20.932Z,16.30
2022-08-31T23:46:49.380Z,16.30
2022-08-31T23:49:19.073Z,16.30
2022-08-31T23:51:45.877Z,16.20
2022-08-31T23:54:13.122Z,16.20
2022-08-31T23:56:41.750Z,16.20
2022-08-31T23:59:12.736Z,16.20
